Longue-Pointe, Canada
Current Conditions -  °F | °C
As of 8:00 PM on Monday 20 Oct 2014 (Local Time) from CYGV Reporting Station
Overcast Overcast  
Wind Chill: 34°   Ceiling: 7500
Heat Index: 43°   Visibility: 9mi
Dew Point: 37°   Wind: 22mph
Humidity: 81%   Direction: 260°W
Pressure: 29.48"   Gusts: 29mph
Location:  50.27°N, 64.15°W
Report Text: CYGV 210000Z AUTO 26019G25KT 9SM OVC075 06/03 A2948 RMK TS/LTNG TEMPO UNAVBL SLP985
Loading
Personal Weather Stations






























Interactive Weather Map
Tropical Storm Tracking
New forecast layout! Learn more

10-Day Weather Forecast

Advertisements
Track Severe Weather on mobile